createdAt,value
2022-11-15T00:00:13.343Z,0.00
2022-11-15T00:01:13.344Z,0.00
2022-11-15T00:02:13.434Z,0.00
2022-11-15T00:03:13.327Z,0.00
2022-11-15T00:04:13.308Z,0.00
2022-11-15T00:05:13.303Z,0.00
2022-11-15T00:06:13.292Z,0.00
2022-11-15T00:07:33.319Z,0.00
2022-11-15T00:08:13.396Z,0.00
2022-11-15T00:09:13.258Z,0.00
2022-11-15T00:10:13.245Z,0.00
2022-11-15T00:11:13.276Z,0.00
2022-11-15T00:12:13.220Z,0.00
2022-11-15T00:13:13.232Z,0.00
2022-11-15T00:14:13.239Z,0.00
2022-11-15T00:15:13.196Z,0.00
2022-11-15T00:16:13.180Z,0.00
2022-11-15T00:17:13.174Z,0.00
2022-11-15T00:18:13.183Z,0.00
2022-11-15T00:19:13.154Z,0.00
2022-11-15T00:20:13.160Z,0.00
2022-11-15T00:21:13.170Z,0.00
2022-11-15T00:22:13.115Z,0.00
2022-11-15T00:23:13.118Z,0.00
2022-11-15T00:24:13.093Z,0.00
2022-11-15T00:25:13.091Z,0.00
2022-11-15T00:26:13.099Z,0.00
2022-11-15T00:27:13.062Z,0.00
2022-11-15T00:28:13.058Z,0.00
2022-11-15T00:29:13.078Z,0.00
2022-11-15T00:30:13.035Z,0.00
2022-11-15T00:31:13.020Z,0.00
2022-11-15T00:32:13.034Z,0.00
2022-11-15T00:33:13.003Z,0.00
2022-11-15T00:34:12.984Z,0.00
2022-11-15T00:35:12.969Z,0.00
2022-11-15T00:36:12.960Z,0.00
2022-11-15T00:37:12.952Z,0.00
2022-11-15T00:38:12.965Z,0.00
2022-11-15T00:39:12.931Z,0.00
2022-11-15T00:40:12.928Z,0.00
2022-11-15T00:41:12.919Z,0.00
2022-11-15T00:42:12.896Z,0.00
2022-11-15T00:43:12.892Z,0.00
2022-11-15T00:44:12.892Z,0.00
2022-11-15T00:45:12.870Z,0.00
2022-11-15T00:46:12.854Z,0.00
2022-11-15T00:47:12.851Z,0.00
2022-11-15T00:48:12.835Z,0.00
2022-11-15T00:49:12.827Z,0.00
2022-11-15T00:50:15.100Z,0.00
2022-11-15T00:51:12.825Z,0.00
2022-11-15T00:52:12.794Z,0.00
2022-11-15T00:53:12.781Z,0.00
2022-11-15T00:54:12.789Z,0.00
2022-11-15T00:55:12.752Z,0.00
2022-11-15T00:56:12.787Z,0.00
2022-11-15T00:57:12.743Z,0.00
2022-11-15T00:58:12.729Z,0.00
2022-11-15T00:59:12.713Z,0.00
2022-11-15T01:00:12.703Z,0.00
2022-11-15T01:01:12.734Z,0.00
2022-11-15T01:02:12.727Z,0.00
2022-11-15T01:03:12.669Z,0.00
2022-11-15T01:04:12.662Z,0.00
2022-11-15T01:05:12.651Z,0.00
2022-11-15T01:06:12.628Z,0.00
2022-11-15T01:07:12.700Z,0.00
2022-11-15T01:08:12.635Z,0.00
2022-11-15T01:09:12.610Z,0.00
2022-11-15T01:10:12.595Z,0.00
2022-11-15T01:11:12.590Z,0.00
2022-11-15T01:12:12.564Z,0.00
2022-11-15T01:13:12.552Z,0.00
2022-11-15T01:14:12.574Z,0.00
2022-11-15T01:15:12.547Z,0.00
2022-11-15T01:16:12.522Z,0.00
2022-11-15T01:17:12.516Z,0.00
2022-11-15T01:18:12.503Z,0.00
2022-11-15T01:19:12.517Z,0.00
2022-11-15T01:20:12.504Z,0.00
2022-11-15T01:21:12.483Z,0.00
2022-11-15T01:22:12.465Z,0.00
2022-11-15T01:23:12.457Z,0.00
2022-11-15T01:24:12.436Z,0.00
2022-11-15T01:25:12.428Z,0.00
2022-11-15T01:26:12.431Z,0.00
2022-11-15T01:27:12.420Z,0.00
2022-11-15T01:28:12.402Z,0.00
2022-11-15T01:29:12.392Z,0.00
2022-11-15T01:30:12.374Z,0.00
2022-11-15T01:31:12.366Z,0.00
2022-11-15T01:32:12.373Z,0.00
2022-11-15T01:33:12.341Z,0.00
2022-11-15T01:34:12.339Z,0.00
2022-11-15T01:35:12.317Z,0.00
2022-11-15T01:36:12.309Z,0.00
2022-11-15T01:37:12.296Z,0.00
2022-11-15T01:38:12.333Z,0.00
2022-11-15T01:39:12.286Z,0.00
2022-11-15T01:40:12.267Z,0.00
2022-11-15T01:41:12.256Z,0.00
2022-11-15T01:42:12.246Z,0.00
2022-11-15T01:43:12.238Z,0.00
2022-11-15T01:44:12.238Z,0.00
2022-11-15T01:45:12.217Z,0.00
2022-11-15T01:46:12.202Z,0.00
2022-11-15T01:47:12.220Z,0.00
2022-11-15T01:48:12.209Z,0.00
2022-11-15T01:49:12.173Z,0.00
2022-11-15T01:50:12.171Z,0.00
2022-11-15T01:51:12.147Z,0.00
2022-11-15T01:52:12.154Z,0.00
2022-11-15T01:53:12.125Z,0.00
2022-11-15T01:54:12.118Z,0.00
2022-11-15T01:55:12.129Z,0.00
2022-11-15T01:56:12.094Z,0.00
2022-11-15T01:57:12.104Z,0.00
2022-11-15T01:58:12.074Z,0.00
2022-11-15T01:59:12.054Z,0.00
2022-11-15T02:00:12.047Z,0.00
2022-11-15T02:01:12.176Z,0.00
2022-11-15T02:02:12.042Z,0.00
2022-11-15T02:03:12.028Z,0.00
2022-11-15T02:04:12.003Z,0.00
2022-11-15T02:05:11.998Z,0.00
2022-11-15T02:06:11.976Z,0.00
2022-11-15T02:07:12.102Z,0.00
2022-11-15T02:08:11.967Z,0.00
2022-11-15T02:09:11.945Z,0.00
2022-11-15T02:10:11.972Z,0.00
2022-11-15T02:11:11.933Z,0.00
2022-11-15T02:12:11.938Z,0.00
2022-11-15T02:13:11.902Z,0.00
2022-11-15T02:14:11.894Z,0.00
2022-11-15T02:15:11.885Z,0.00
2022-11-15T02:16:11.873Z,0.00
2022-11-15T02:17:11.894Z,0.00
2022-11-15T02:18:11.869Z,0.00
2022-11-15T02:19:11.843Z,0.00
2022-11-15T02:20:11.841Z,0.00
2022-11-15T02:21:11.818Z,0.00
2022-11-15T02:22:11.826Z,0.00
2022-11-15T02:23:11.796Z,0.00
2022-11-15T02:24:11.818Z,0.00
2022-11-15T02:25:11.773Z,0.00
2022-11-15T02:26:11.766Z,0.00
2022-11-15T02:27:11.794Z,0.00
2022-11-15T02:28:11.760Z,0.00
2022-11-15T02:29:11.744Z,0.00
2022-11-15T02:30:11.729Z,0.00
2022-11-15T02:31:11.705Z,0.00
2022-11-15T02:32:11.712Z,0.00
2022-11-15T02:33:11.691Z,0.00
2022-11-15T02:34:11.675Z,0.00
2022-11-15T02:35:11.663Z,0.00
2022-11-15T02:36:11.651Z,0.00
2022-11-15T02:37:11.672Z,0.00
2022-11-15T02:38:11.636Z,0.00
2022-11-15T02:39:11.619Z,0.00
2022-11-15T02:40:11.613Z,0.00
2022-11-15T02:41:11.610Z,0.00
2022-11-15T02:42:11.602Z,0.00
2022-11-15T02:43:11.584Z,0.00
2022-11-15T02:44:11.571Z,0.00
2022-11-15T02:45:11.563Z,0.00
2022-11-15T02:46:11.549Z,0.00
2022-11-15T02:47:11.555Z,0.00
2022-11-15T02:48:11.514Z,0.00
2022-11-15T02:49:11.519Z,0.00
2022-11-15T02:50:11.503Z,0.00
2022-11-15T02:51:11.501Z,0.00
2022-11-15T02:52:11.502Z,0.00
2022-11-15T02:53:11.470Z,0.00
2022-11-15T02:54:11.463Z,0.00
2022-11-15T02:55:11.455Z,0.00
2022-11-15T02:56:11.445Z,0.00
2022-11-15T02:57:11.448Z,0.00
2022-11-15T02:58:11.415Z,0.00
2022-11-15T02:59:11.414Z,0.00
2022-11-15T03:00:11.394Z,0.00
2022-11-15T03:01:11.443Z,0.00
2022-11-15T03:02:11.386Z,0.00
2022-11-15T03:03:11.359Z,0.00
2022-11-15T03:04:11.347Z,0.00
2022-11-15T03:05:11.343Z,0.00
2022-11-15T03:06:11.350Z,0.00
2022-11-15T03:07:11.369Z,0.00
2022-11-15T03:08:11.332Z,0.00
2022-11-15T03:09:11.304Z,0.00
2022-11-15T03:10:11.288Z,0.00
2022-11-15T03:11:11.307Z,0.00
2022-11-15T03:12:11.268Z,0.00
2022-11-15T03:13:11.278Z,0.00
2022-11-15T03:14:11.244Z,0.00
2022-11-15T03:15:11.236Z,0.00
2022-11-15T03:16:11.224Z,0.00
2022-11-15T03:17:11.214Z,0.00
2022-11-15T03:18:11.220Z,0.00
2022-11-15T03:19:11.190Z,0.00
2022-11-15T03:20:11.175Z,0.00
2022-11-15T03:21:11.165Z,0.00
2022-11-15T03:22:11.158Z,0.00
2022-11-15T03:23:11.164Z,0.00
2022-11-15T03:24:11.138Z,0.00
2022-11-15T03:25:17.686Z,0.00
2022-11-15T03:26:11.103Z,0.00
2022-11-15T03:27:11.106Z,0.00
2022-11-15T03:28:11.103Z,0.00
2022-11-15T03:29:11.076Z,0.00
2022-11-15T03:30:11.066Z,0.00
2022-11-15T03:31:11.061Z,0.00
2022-11-15T03:32:11.051Z,0.00
2022-11-15T03:33:11.059Z,0.00
2022-11-15T03:34:11.025Z,0.00
2022-11-15T03:35:11.010Z,0.00
2022-11-15T03:36:10.997Z,0.00
2022-11-15T03:37:10.995Z,0.00
2022-11-15T03:38:11.058Z,0.00
2022-11-15T03:39:10.975Z,0.00
2022-11-15T03:40:10.956Z,0.00
2022-11-15T03:41:10.944Z,0.00
2022-11-15T03:42:10.945Z,0.00
2022-11-15T03:43:10.938Z,0.00
2022-11-15T03:44:10.920Z,0.00
2022-11-15T03:45:10.903Z,0.00
2022-11-15T03:46:10.897Z,0.00
2022-11-15T03:47:10.885Z,0.00
2022-11-15T03:48:10.896Z,0.00
2022-11-15T03:49:10.868Z,0.00
2022-11-15T03:50:10.850Z,0.00
2022-11-15T03:51:10.830Z,0.00
2022-11-15T03:52:10.826Z,0.00
2022-11-15T03:53:10.831Z,0.00
2022-11-15T03:54:10.808Z,0.00
2022-11-15T03:55:10.788Z,0.00
2022-11-15T03:56:10.778Z,0.00
2022-11-15T03:57:10.788Z,0.00
2022-11-15T03:58:10.782Z,0.00
2022-11-15T03:59:10.751Z,0.00
2022-11-15T04:00:10.743Z,0.00
2022-11-15T04:01:10.777Z,0.00
2022-11-15T04:02:10.721Z,0.00
2022-11-15T04:03:10.751Z,0.00
2022-11-15T04:04:10.714Z,0.00
2022-11-15T04:05:10.728Z,0.00
2022-11-15T04:06:10.691Z,0.00
2022-11-15T04:07:10.744Z,0.00
2022-11-15T04:08:10.668Z,0.00
2022-11-15T04:09:10.649Z,0.00
2022-11-15T04:10:10.629Z,0.00
2022-11-15T04:11:10.627Z,0.00
2022-11-15T04:12:10.630Z,0.00
2022-11-15T04:13:10.639Z,0.00
2022-11-15T04:14:10.575Z,0.00
2022-11-15T04:15:10.578Z,0.00
2022-11-15T04:16:10.573Z,0.00
2022-11-15T04:17:10.554Z,0.00
2022-11-15T04:18:10.559Z,0.00
2022-11-15T04:19:10.529Z,0.00
2022-11-15T04:20:10.532Z,0.00
2022-11-15T04:21:10.524Z,0.00
2022-11-15T04:22:10.499Z,0.00
2022-11-15T04:23:10.506Z,0.00
2022-11-15T04:24:10.478Z,0.00
2022-11-15T04:25:10.476Z,0.00
2022-11-15T04:26:10.452Z,0.00
2022-11-15T04:27:10.449Z,0.00
2022-11-15T04:28:10.466Z,0.00
2022-11-15T04:29:10.420Z,0.00
2022-11-15T04:30:10.420Z,0.00
2022-11-15T04:31:10.403Z,0.00
2022-11-15T04:32:10.402Z,0.00
2022-11-15T04:33:10.413Z,0.00
2022-11-15T04:34:10.382Z,0.00
2022-11-15T04:35:10.354Z,0.00
2022-11-15T04:36:10.351Z,0.00
2022-11-15T04:37:10.334Z,0.00
2022-11-15T04:38:10.338Z,0.00
2022-11-15T04:39:10.325Z,0.00
2022-11-15T04:40:10.303Z,0.00
2022-11-15T04:41:10.300Z,0.00
2022-11-15T04:42:10.285Z,0.00
2022-11-15T04:43:10.292Z,0.00
2022-11-15T04:44:10.272Z,0.00
2022-11-15T04:45:10.253Z,0.00
2022-11-15T04:46:10.233Z,0.00
2022-11-15T04:47:10.232Z,0.00
2022-11-15T04:48:10.237Z,0.00
2022-11-15T04:49:10.206Z,0.00
2022-11-15T04:50:10.203Z,0.00
2022-11-15T04:51:10.190Z,0.00
2022-11-15T04:52:10.160Z,0.00
2022-11-15T04:53:10.193Z,0.00
2022-11-15T04:54:10.167Z,0.00
2022-11-15T04:55:10.159Z,0.00
2022-11-15T04:56:10.132Z,0.00
2022-11-15T04:57:10.122Z,0.00
2022-11-15T04:58:10.119Z,0.00
2022-11-15T04:59:10.103Z,0.00
2022-11-15T05:00:10.087Z,0.00
2022-11-15T05:01:10.172Z,0.00
2022-11-15T05:02:10.068Z,0.00
2022-11-15T05:03:10.087Z,0.00
2022-11-15T05:04:10.064Z,0.00
2022-11-15T05:05:10.032Z,0.00
2022-11-15T05:06:10.028Z,0.00
2022-11-15T05:07:10.080Z,0.00
2022-11-15T05:08:10.017Z,0.00
2022-11-15T05:09:09.989Z,0.00
2022-11-15T05:10:09.977Z,0.00
2022-11-15T05:11:09.976Z,0.00
2022-11-15T05:12:09.974Z,0.00
2022-11-15T05:13:09.964Z,0.00
2022-11-15T05:14:09.928Z,0.00
2022-11-15T05:15:09.939Z,0.00
2022-11-15T05:16:09.918Z,0.00
2022-11-15T05:17:09.909Z,0.00
2022-11-15T05:18:09.923Z,0.00
2022-11-15T05:19:09.886Z,0.00
2022-11-15T05:20:09.883Z,0.00
2022-11-15T05:21:09.866Z,0.00
2022-11-15T05:22:09.863Z,0.00
2022-11-15T05:23:09.871Z,0.00
2022-11-15T05:24:09.824Z,0.00
2022-11-15T05:25:09.813Z,0.00
2022-11-15T05:26:09.851Z,0.00
2022-11-15T05:27:09.804Z,0.00
2022-11-15T05:28:09.807Z,0.00
2022-11-15T05:29:09.780Z,0.00
2022-11-15T05:30:09.759Z,0.00
2022-11-15T05:31:09.758Z,0.00
2022-11-15T05:32:09.739Z,0.00
2022-11-15T05:33:09.755Z,0.00
2022-11-15T05:34:09.722Z,0.00
2022-11-15T05:35:09.705Z,0.00
2022-11-15T05:36:09.690Z,0.00
2022-11-15T05:37:09.689Z,0.00
2022-11-15T05:38:09.704Z,0.00
2022-11-15T05:39:09.682Z,0.00
2022-11-15T05:40:09.674Z,0.00
2022-11-15T05:41:09.650Z,0.00
2022-11-15T05:42:09.623Z,0.00
2022-11-15T05:43:09.636Z,0.00
2022-11-15T05:44:09.606Z,0.00
2022-11-15T05:45:09.598Z,0.00
2022-11-15T05:46:09.583Z,0.00
2022-11-15T05:47:09.572Z,0.00
2022-11-15T05:48:09.583Z,0.00
2022-11-15T05:49:09.557Z,0.00
2022-11-15T05:50:09.543Z,0.00
2022-11-15T05:51:09.543Z,0.00
2022-11-15T05:52:09.514Z,0.00
2022-11-15T05:53:09.530Z,0.00
2022-11-15T05:54:09.496Z,0.00
2022-11-15T05:55:09.498Z,0.00
2022-11-15T05:56:09.481Z,0.00
2022-11-15T05:57:09.470Z,0.00
2022-11-15T05:58:09.453Z,0.00
2022-11-15T05:59:09.470Z,0.00
2022-11-15T06:00:09.435Z,0.00
2022-11-15T06:01:09.422Z,0.00
2022-11-15T06:02:09.435Z,0.00
2022-11-15T06:03:09.415Z,0.00
2022-11-15T06:04:09.409Z,0.00
2022-11-15T06:05:09.381Z,0.00
2022-11-15T06:06:13.645Z,0.00
2022-11-15T06:07:09.422Z,0.00
2022-11-15T06:08:09.346Z,0.00
2022-11-15T06:09:09.372Z,0.00
2022-11-15T06:10:09.324Z,0.00
2022-11-15T06:11:09.318Z,0.00
2022-11-15T06:12:09.305Z,0.00
2022-11-15T06:13:09.300Z,0.00
2022-11-15T06:14:09.299Z,0.00
2022-11-15T06:15:09.272Z,0.00
2022-11-15T06:16:09.260Z,4.00
2022-11-15T06:17:11.432Z,0.00
2022-11-15T06:18:09.228Z,0.00
2022-11-15T06:19:09.259Z,0.00
2022-11-15T06:20:09.216Z,4.00
2022-11-15T06:21:09.197Z,0.00
2022-11-15T06:22:09.193Z,4.00
2022-11-15T06:23:09.183Z,4.00
2022-11-15T06:24:09.312Z,4.00
2022-11-15T06:25:09.162Z,4.00
2022-11-15T06:26:09.159Z,8.00
2022-11-15T06:27:09.154Z,4.00
2022-11-15T06:28:09.129Z,8.00
2022-11-15T06:29:09.141Z,8.00
2022-11-15T06:30:09.106Z,12.00
2022-11-15T06:31:09.097Z,12.00
2022-11-15T06:32:09.078Z,12.00
2022-11-15T06:33:09.101Z,16.00
2022-11-15T06:34:09.080Z,16.00
2022-11-15T06:35:09.065Z,20.00
2022-11-15T06:36:13.116Z,20.00
2022-11-15T06:37:09.071Z,24.00
2022-11-15T06:38:09.024Z,28.00
2022-11-15T06:39:09.018Z,32.00
2022-11-15T06:40:08.995Z,32.00
2022-11-15T06:41:08.995Z,40.00
2022-11-15T06:42:08.976Z,44.00
2022-11-15T06:43:08.967Z,52.00
2022-11-15T06:44:08.979Z,52.00
2022-11-15T06:45:08.946Z,56.00
2022-11-15T06:46:08.932Z,60.00
2022-11-15T06:47:08.924Z,64.00
2022-11-15T06:48:08.909Z,72.00
2022-11-15T06:49:09.926Z,76.00
2022-11-15T06:50:08.891Z,88.00
2022-11-15T06:51:08.870Z,92.00
2022-11-15T06:52:08.863Z,96.00
2022-11-15T06:53:08.853Z,96.00
2022-11-15T06:54:08.872Z,96.00
2022-11-15T06:55:08.837Z,96.00
2022-11-15T06:56:08.823Z,108.00
2022-11-15T06:57:08.815Z,112.00
2022-11-15T06:58:08.794Z,116.00
2022-11-15T06:59:08.812Z,116.00
2022-11-15T07:00:08.784Z,116.00
2022-11-15T07:01:08.775Z,116.00
2022-11-15T07:02:08.762Z,124.00
2022-11-15T07:03:08.749Z,132.00
2022-11-15T07:04:08.756Z,140.00
2022-11-15T07:05:08.740Z,144.00
2022-11-15T07:06:08.716Z,148.00
2022-11-15T07:07:08.734Z,148.00
2022-11-15T07:08:08.691Z,148.00
2022-11-15T07:09:08.703Z,152.00
2022-11-15T07:10:08.666Z,160.00
2022-11-15T07:11:08.671Z,164.00
2022-11-15T07:12:08.642Z,180.00
2022-11-15T07:13:08.635Z,188.00
2022-11-15T07:14:08.642Z,188.00
2022-11-15T07:15:08.623Z,196.00
2022-11-15T07:16:08.612Z,196.00
2022-11-15T07:17:08.595Z,192.00
2022-11-15T07:18:08.581Z,192.00
2022-11-15T07:19:08.595Z,200.00
2022-11-15T07:20:08.555Z,192.00
2022-11-15T07:21:08.585Z,196.00
2022-11-15T07:22:08.532Z,204.00
2022-11-15T07:23:08.527Z,220.00
2022-11-15T07:24:08.540Z,236.00
2022-11-15T07:25:08.503Z,248.00
2022-11-15T07:26:08.493Z,268.00
2022-11-15T07:27:08.489Z,280.00
2022-11-15T07:28:08.469Z,284.00
2022-11-15T07:29:08.478Z,284.00
2022-11-15T07:30:08.449Z,272.00
2022-11-15T07:31:08.496Z,292.00
2022-11-15T07:32:08.427Z,344.00
2022-11-15T07:33:08.444Z,376.00
2022-11-15T07:34:08.423Z,384.00
2022-11-15T07:35:08.396Z,412.00
2022-11-15T07:36:08.381Z,432.00
2022-11-15T07:37:08.398Z,432.00
2022-11-15T07:38:08.379Z,432.00
2022-11-15T07:39:08.369Z,432.00
2022-11-15T07:40:08.335Z,440.00
2022-11-15T07:41:08.339Z,448.00
2022-11-15T07:42:08.330Z,448.00
2022-11-15T07:43:08.307Z,448.00
2022-11-15T07:44:08.307Z,420.00
2022-11-15T07:45:08.317Z,392.00
2022-11-15T07:46:08.284Z,388.00
2022-11-15T07:47:08.275Z,412.00
2022-11-15T07:48:08.252Z,476.00
2022-11-15T07:49:08.265Z,552.00
2022-11-15T07:50:08.233Z,624.00
2022-11-15T07:51:13.753Z,648.00
2022-11-15T07:52:08.230Z,628.00
2022-11-15T07:53:08.204Z,628.00
2022-11-15T07:54:08.207Z,632.00
2022-11-15T07:55:08.186Z,608.00
2022-11-15T07:56:08.176Z,596.00
2022-11-15T07:57:08.287Z,612.00
2022-11-15T07:58:08.160Z,652.00
2022-11-15T07:59:08.166Z,636.00
2022-11-15T08:00:08.120Z,580.00
2022-11-15T08:01:08.374Z,540.00
2022-11-15T08:02:08.260Z,552.00
2022-11-15T08:03:08.088Z,592.00
2022-11-15T08:04:08.103Z,612.00
2022-11-15T08:05:08.109Z,632.00
2022-11-15T08:06:08.050Z,684.00
2022-11-15T08:07:08.110Z,696.00
2022-11-15T08:08:08.049Z,636.00
2022-11-15T08:09:08.049Z,592.00
2022-11-15T08:10:08.014Z,612.00
2022-11-15T08:11:08.004Z,648.00
2022-11-15T08:12:07.994Z,684.00
2022-11-15T08:13:08.050Z,728.00
2022-11-15T08:14:08.016Z,780.00
2022-11-15T08:15:07.965Z,788.00
2022-11-15T08:16:07.945Z,804.00
2022-11-15T08:17:07.946Z,856.00
2022-11-15T08:18:07.927Z,900.00
2022-11-15T08:19:07.942Z,940.00
2022-11-15T08:20:07.913Z,968.00
2022-11-15T08:21:07.902Z,1016.00
2022-11-15T08:22:07.893Z,1092.00
2022-11-15T08:23:07.885Z,1172.00
2022-11-15T08:24:07.894Z,1224.00
2022-11-15T08:25:07.851Z,1280.00
2022-11-15T08:26:07.836Z,1336.00
2022-11-15T08:27:07.879Z,1340.00
2022-11-15T08:28:07.832Z,1368.00
2022-11-15T08:29:07.828Z,1372.00
2022-11-15T08:30:07.822Z,1384.00
2022-11-15T08:31:07.785Z,1416.00
2022-11-15T08:32:07.775Z,1480.00
2022-11-15T08:33:07.796Z,1488.00
2022-11-15T08:34:07.786Z,1468.00
2022-11-15T08:35:07.749Z,1428.00
2022-11-15T08:36:07.736Z,1324.00
2022-11-15T08:37:07.728Z,1216.00
2022-11-15T08:38:07.738Z,1120.00
2022-11-15T08:39:07.731Z,1016.00
2022-11-15T08:40:07.692Z,952.00
2022-11-15T08:41:07.679Z,1008.00
2022-11-15T08:42:07.662Z,1116.00
2022-11-15T08:43:07.667Z,1140.00
2022-11-15T08:44:07.661Z,1112.00
2022-11-15T08:45:07.640Z,1152.00
2022-11-15T08:46:07.627Z,1328.00
2022-11-15T08:47:07.634Z,1688.00
2022-11-15T08:48:07.602Z,2052.00
2022-11-15T08:49:07.615Z,2264.00
2022-11-15T08:50:07.575Z,2308.00
2022-11-15T08:51:07.574Z,2316.00
2022-11-15T08:52:07.567Z,2396.00
2022-11-15T08:53:07.550Z,2504.00
2022-11-15T08:54:07.571Z,2556.00
2022-11-15T08:55:07.543Z,2460.00
2022-11-15T08:56:07.524Z,2260.00
2022-11-15T08:57:07.510Z,2144.00
2022-11-15T08:58:07.495Z,2100.00
2022-11-15T08:59:07.507Z,2080.00
2022-11-15T09:00:07.486Z,2024.00
2022-11-15T09:01:07.538Z,1960.00
2022-11-15T09:02:07.525Z,1936.00
2022-11-15T09:03:07.435Z,1976.00
2022-11-15T09:04:07.448Z,2040.00
2022-11-15T09:05:07.418Z,2132.00
2022-11-15T09:06:07.637Z,2180.00
2022-11-15T09:07:07.521Z,2240.00
2022-11-15T09:08:32.367Z,2344.00
2022-11-15T09:09:07.401Z,2424.00
2022-11-15T09:10:07.378Z,2500.00
2022-11-15T09:11:07.353Z,2584.00
2022-11-15T09:12:07.339Z,2656.00
2022-11-15T09:13:07.338Z,2680.00
2022-11-15T09:14:07.341Z,2680.00
2022-11-15T09:15:07.311Z,2736.00
2022-11-15T09:16:07.302Z,2732.00
2022-11-15T09:17:07.293Z,2692.00
2022-11-15T09:18:07.278Z,2668.00
2022-11-15T09:19:11.727Z,2652.00
2022-11-15T09:20:07.256Z,2708.00
2022-11-15T09:21:07.254Z,2784.00
2022-11-15T09:22:07.228Z,2820.00
2022-11-15T09:23:07.225Z,2860.00
2022-11-15T09:24:07.228Z,2836.00
2022-11-15T09:25:10.023Z,2768.00
2022-11-15T09:26:07.191Z,2708.00
2022-11-15T09:27:07.167Z,2656.00
2022-11-15T09:28:07.173Z,2688.00
2022-11-15T09:29:07.183Z,2764.00
2022-11-15T09:30:07.139Z,2812.00
2022-11-15T09:31:07.141Z,2788.00
2022-11-15T09:32:07.129Z,2664.00
2022-11-15T09:33:07.109Z,2600.00
2022-11-15T09:34:07.115Z,2644.00
2022-11-15T09:35:07.097Z,2668.00
2022-11-15T09:36:07.086Z,2660.00
2022-11-15T09:37:07.089Z,2612.00
2022-11-15T09:38:07.062Z,2544.00
2022-11-15T09:39:07.081Z,2388.00
2022-11-15T09:40:07.034Z,2272.00
2022-11-15T09:41:07.040Z,2260.00
2022-11-15T09:42:07.026Z,2220.00
2022-11-15T09:43:07.010Z,2176.00
2022-11-15T09:44:07.008Z,2144.00
2022-11-15T09:45:06.989Z,2120.00
2022-11-15T09:46:06.967Z,2112.00
2022-11-15T09:47:06.953Z,2076.00
2022-11-15T09:48:06.956Z,2116.00
2022-11-15T09:49:06.960Z,2172.00
2022-11-15T09:50:06.927Z,2216.00
2022-11-15T09:51:06.919Z,2232.00
2022-11-15T09:52:06.897Z,2188.00
2022-11-15T09:53:06.916Z,2104.00
2022-11-15T09:55:06.899Z,1904.00
2022-11-15T09:56:06.858Z,1828.00
2022-11-15T09:57:08.435Z,1748.00
2022-11-15T09:58:06.841Z,1616.00
2022-11-15T09:59:06.855Z,1484.00
2022-11-15T10:01:05.880Z,1528.00
2022-11-15T10:02:06.811Z,1592.00
2022-11-15T10:03:06.784Z,1676.00
2022-11-15T10:04:10.758Z,1716.00
2022-11-15T10:05:06.778Z,1720.00
2022-11-15T10:06:06.756Z,1716.00
2022-11-15T10:07:06.789Z,1724.00
2022-11-15T10:08:06.734Z,1744.00
2022-11-15T10:09:06.756Z,1824.00
2022-11-15T10:10:06.721Z,2000.00
2022-11-15T10:12:06.695Z,2104.00
2022-11-15T10:13:06.689Z,2124.00
2022-11-15T10:14:06.666Z,2208.00
2022-11-15T10:15:06.667Z,2252.00
2022-11-15T10:16:06.655Z,2228.00
2022-11-15T10:17:06.635Z,2188.00
2022-11-15T10:18:06.622Z,2156.00
2022-11-15T10:19:06.610Z,2144.00
2022-11-15T10:20:06.660Z,2128.00
2022-11-15T10:21:06.595Z,2136.00
2022-11-15T10:22:06.576Z,2172.00
2022-11-15T10:23:06.570Z,2208.00
2022-11-15T10:24:06.559Z,2220.00
2022-11-15T10:25:06.573Z,2184.00
2022-11-15T10:26:07.157Z,2104.00
2022-11-15T10:27:06.537Z,2008.00
2022-11-15T10:28:06.513Z,1920.00
2022-11-15T10:29:06.503Z,1868.00
2022-11-15T10:30:06.506Z,1832.00
2022-11-15T10:31:06.482Z,1820.00
2022-11-15T10:32:06.472Z,1816.00
2022-11-15T10:33:06.459Z,1812.00
2022-11-15T10:34:06.450Z,1796.00
2022-11-15T10:35:06.448Z,1776.00
2022-11-15T10:36:06.425Z,1760.00
2022-11-15T10:37:06.411Z,1748.00
2022-11-15T10:38:06.405Z,1756.00
2022-11-15T10:39:06.383Z,1800.00
2022-11-15T10:40:06.404Z,1916.00
2022-11-15T10:41:06.379Z,2100.00
2022-11-15T10:42:10.918Z,2296.00
2022-11-15T10:43:06.363Z,2448.00
2022-11-15T10:44:06.335Z,2528.00
2022-11-15T10:45:06.339Z,2552.00
2022-11-15T10:46:31.539Z,2524.00
2022-11-15T10:47:06.320Z,2460.00
2022-11-15T10:48:06.294Z,2432.00
2022-11-15T10:49:06.291Z,2476.00
2022-11-15T10:50:06.283Z,2588.00
2022-11-15T10:51:06.266Z,2688.00
2022-11-15T10:52:06.247Z,2816.00
2022-11-15T10:53:06.281Z,2952.00
2022-11-15T10:54:10.631Z,3044.00
2022-11-15T10:55:06.301Z,3008.00
2022-11-15T10:56:06.199Z,2920.00
2022-11-15T10:57:06.206Z,2896.00
2022-11-15T10:58:06.183Z,2912.00
2022-11-15T10:59:06.169Z,2872.00
2022-11-15T11:00:06.175Z,2784.00
2022-11-15T11:01:06.201Z,2648.00
2022-11-15T11:02:06.133Z,2504.00
2022-11-15T11:03:06.129Z,2432.00
2022-11-15T11:04:06.117Z,2480.00
2022-11-15T11:05:06.123Z,2544.00
2022-11-15T11:06:06.092Z,2556.00
2022-11-15T11:07:06.112Z,2516.00
2022-11-15T11:08:06.065Z,2472.00
2022-11-15T11:09:06.073Z,2416.00
2022-11-15T11:10:22.872Z,2288.00
2022-11-15T11:11:06.044Z,2116.00
2022-11-15T11:12:06.026Z,1948.00
2022-11-15T11:13:06.020Z,1808.00
2022-11-15T11:14:05.997Z,1736.00
2022-11-15T11:15:06.008Z,1712.00
2022-11-15T11:16:05.976Z,1696.00
2022-11-15T11:17:05.969Z,1676.00
2022-11-15T11:18:05.965Z,1692.00
2022-11-15T11:19:05.962Z,1760.00
2022-11-15T11:20:05.950Z,1900.00
2022-11-15T11:21:05.923Z,2084.00
2022-11-15T11:22:05.922Z,2232.00
2022-11-15T11:23:05.921Z,2352.00
2022-11-15T11:24:05.893Z,2388.00
2022-11-15T11:25:05.905Z,2380.00
2022-11-15T11:26:05.869Z,2392.00
2022-11-15T11:27:05.863Z,2420.00
2022-11-15T11:28:05.840Z,2428.00
2022-11-15T11:29:05.834Z,2396.00
2022-11-15T11:30:05.837Z,2376.00
2022-11-15T11:31:05.834Z,2472.00
2022-11-15T11:32:05.804Z,2688.00
2022-11-15T11:33:05.796Z,3032.00
2022-11-15T11:34:05.806Z,3304.00
2022-11-15T11:35:05.790Z,3436.00
2022-11-15T11:36:05.752Z,3528.00
2022-11-15T11:37:05.748Z,3628.00
2022-11-15T11:38:05.740Z,3624.00
2022-11-15T11:39:05.738Z,3628.00
2022-11-15T11:40:10.440Z,3588.00
2022-11-15T11:41:05.710Z,3648.00
2022-11-15T11:42:05.689Z,3792.00
2022-11-15T11:43:05.683Z,3908.00
2022-11-15T11:44:05.672Z,3888.00
2022-11-15T11:45:05.684Z,3812.00
2022-11-15T11:46:05.643Z,3884.00
2022-11-15T11:47:05.633Z,4072.00
2022-11-15T11:48:05.638Z,4232.00
2022-11-15T11:49:05.626Z,4280.00
2022-11-15T11:50:05.620Z,4200.00
2022-11-15T11:51:05.607Z,3928.00
2022-11-15T11:52:05.584Z,3568.00
2022-11-15T11:53:05.577Z,3236.00
2022-11-15T11:54:05.552Z,2980.00
2022-11-15T11:55:05.576Z,2840.00
2022-11-15T11:56:05.543Z,2780.00
2022-11-15T11:57:05.568Z,2764.00
2022-11-15T11:58:05.511Z,2756.00
2022-11-15T11:59:05.509Z,2764.00
2022-11-15T12:00:05.516Z,2780.00
2022-11-15T12:01:11.452Z,2808.00
2022-11-15T12:02:05.571Z,2812.00
2022-11-15T12:03:05.582Z,2812.00
2022-11-15T12:04:05.462Z,2840.00
2022-11-15T12:05:05.460Z,2852.00
2022-11-15T12:06:05.442Z,2860.00
2022-11-15T12:07:05.472Z,2868.00
2022-11-15T12:08:05.408Z,2888.00
2022-11-15T12:09:05.396Z,2944.00
2022-11-15T12:10:05.398Z,2992.00
2022-11-15T12:11:05.372Z,3024.00
2022-11-15T12:12:05.362Z,3052.00
2022-11-15T12:13:05.351Z,3072.00
2022-11-15T12:14:05.337Z,3092.00
2022-11-15T12:15:05.347Z,3112.00
2022-11-15T12:16:09.188Z,3124.00
2022-11-15T12:17:05.316Z,3144.00
2022-11-15T12:18:05.322Z,3168.00
2022-11-15T12:19:05.284Z,3180.00
2022-11-15T12:20:05.292Z,3184.00
2022-11-15T12:21:05.269Z,3184.00
2022-11-15T12:22:05.252Z,3192.00
2022-11-15T12:23:05.246Z,3204.00
2022-11-15T12:24:05.369Z,3212.00
2022-11-15T12:25:05.236Z,3220.00
2022-11-15T12:26:05.216Z,3212.00
2022-11-15T12:27:05.201Z,3212.00
2022-11-15T12:28:05.180Z,3224.00
2022-11-15T12:29:07.824Z,3228.00
2022-11-15T12:30:05.185Z,3232.00
2022-11-15T12:31:05.168Z,3244.00
2022-11-15T12:32:05.136Z,3252.00
2022-11-15T12:33:05.128Z,3256.00
2022-11-15T12:34:07.520Z,3268.00
2022-11-15T12:35:05.124Z,3264.00
2022-11-15T12:36:05.093Z,3276.00
2022-11-15T12:37:05.099Z,3276.00
2022-11-15T12:38:05.075Z,3284.00
2022-11-15T12:39:05.074Z,3304.00
2022-11-15T12:40:05.069Z,3308.00
2022-11-15T12:41:05.056Z,3320.00
2022-11-15T12:42:05.046Z,3316.00
2022-11-15T12:43:05.037Z,3308.00
2022-11-15T12:44:05.007Z,3312.00
2022-11-15T12:45:05.028Z,3320.00
2022-11-15T12:46:04.992Z,3340.00
2022-11-15T12:47:04.984Z,3360.00
2022-11-15T12:48:04.963Z,3384.00